sensor_id;sensor_type;location;lat;lon;timestamp;pressure;altitude;pressure_sealevel;temperature;humidity
73453;BME280;61687;56.232;43.854;2023-03-13T00:00:54;99139.28;;;-0.65;62.72
73453;BME280;61687;56.232;43.854;2023-03-13T00:03:20;99137.88;;;-0.62;62.50
73453;BME280;61687;56.232;43.854;2023-03-13T00:05:46;99152.75;;;-0.74;61.74
73453;BME280;61687;56.232;43.854;2023-03-13T00:08:12;99135.19;;;-0.71;60.73
73453;BME280;61687;56.232;43.854;2023-03-13T00:10:39;99148.19;;;-0.73;60.80
73453;BME280;61687;56.232;43.854;2023-03-13T00:13:07;99141.81;;;-0.68;60.14
73453;BME280;61687;56.232;43.854;2023-03-13T00:15:33;99140.44;;;-0.75;59.12
73453;BME280;61687;56.232;43.854;2023-03-13T00:18:00;99157.03;;;-0.73;59.30
73453;BME280;61687;56.232;43.854;2023-03-13T00:20:26;99170.31;;;-0.76;59.83
73453;BME280;61687;56.232;43.854;2023-03-13T00:22:52;99188.69;;;-0.78;59.61
73453;BME280;61687;56.232;43.854;2023-03-13T00:25:18;99191.06;;;-0.85;59.80
73453;BME280;61687;56.232;43.854;2023-03-13T00:27:44;99196.94;;;-0.83;60.15
73453;BME280;61687;56.232;43.854;2023-03-13T00:30:10;99210.06;;;-0.91;60.11
73453;BME280;61687;56.232;43.854;2023-03-13T00:32:41;99205.94;;;-0.97;59.97
73453;BME280;61687;56.232;43.854;2023-03-13T00:35:07;99203.75;;;-0.95;60.22
73453;BME280;61687;56.232;43.854;2023-03-13T00:37:33;99206.28;;;-0.98;60.65
73453;BME280;61687;56.232;43.854;2023-03-13T00:39:59;99208.03;;;-1.03;60.78
73453;BME280;61687;56.232;43.854;2023-03-13T00:42:25;99218.91;;;-0.99;60.77
73453;BME280;61687;56.232;43.854;2023-03-13T00:44:54;99216.38;;;-1.04;61.15
73453;BME280;61687;56.232;43.854;2023-03-13T00:47:20;99218.13;;;-1.08;61.34
73453;BME280;61687;56.232;43.854;2023-03-13T00:49:45;99221.78;;;-1.04;61.82
73453;BME280;61687;56.232;43.854;2023-03-13T00:52:12;99230.66;;;-1.04;61.99
73453;BME280;61687;56.232;43.854;2023-03-13T00:54:38;99226.50;;;-1.01;62.45
73453;BME280;61687;56.232;43.854;2023-03-13T00:57:04;99235.53;;;-0.97;62.50
73453;BME280;61687;56.232;43.854;2023-03-13T00:59:30;99230.66;;;-1.04;62.78
73453;BME280;61687;56.232;43.854;2023-03-13T01:01:57;99228.56;;;-0.98;62.84
73453;BME280;61687;56.232;43.854;2023-03-13T01:04:23;99236.16;;;-1.00;62.74
73453;BME280;61687;56.232;43.854;2023-03-13T01:06:49;99239.31;;;-0.98;63.26
73453;BME280;61687;56.232;43.854;2023-03-13T01:09:15;99244.09;;;-0.95;63.26
73453;BME280;61687;56.232;43.854;2023-03-13T01:11:43;99239.31;;;-0.98;62.89
73453;BME280;61687;56.232;43.854;2023-03-13T01:14:12;99248.19;;;-1.06;63.05
73453;BME280;61687;56.232;43.854;2023-03-13T01:16:39;99256.72;;;-0.95;62.84
73453;BME280;61687;56.232;43.854;2023-03-13T01:19:09;99260.38;;;-1.00;62.85
73453;BME280;61687;56.232;43.854;2023-03-13T01:21:35;99258.94;;;-0.97;62.78
73453;BME280;61687;56.232;43.854;2023-03-13T01:24:02;99271.75;;;-0.94;63.19
73453;BME280;61687;56.232;43.854;2023-03-13T01:26:28;99270.81;;;-0.90;63.10
73453;BME280;61687;56.232;43.854;2023-03-13T01:28:55;99264.63;;;-0.99;62.50
73453;BME280;61687;56.232;43.854;2023-03-13T01:31:28;99272.72;;;-0.90;63.07
73453;BME280;61687;56.232;43.854;2023-03-13T01:33:57;99292.19;;;-0.84;62.44
73453;BME280;61687;56.232;43.854;2023-03-13T01:36:24;99289.31;;;-0.97;61.78
73453;BME280;61687;56.232;43.854;2023-03-13T01:38:52;99291.53;;;-0.99;61.88
73453;BME280;61687;56.232;43.854;2023-03-13T01:41:20;99300.84;;;-1.05;59.92
73453;BME280;61687;56.232;43.854;2023-03-13T01:43:47;99303.22;;;-1.21;58.95
73453;BME280;61687;56.232;43.854;2023-03-13T01:46:15;99314.41;;;-1.28;58.60
73453;BME280;61687;56.232;43.854;2023-03-13T01:49:09;99315.78;;;-1.48;58.48
73453;BME280;61687;56.232;43.854;2023-03-13T01:52:13;99312.13;;;-1.52;59.32
73453;BME280;61687;56.232;43.854;2023-03-13T01:57:30;99337.88;;;-1.51;58.38
73453;BME280;61687;56.232;43.854;2023-03-13T02:00:01;99330.16;;;-1.53;57.89
73453;BME280;61687;56.232;43.854;2023-03-13T02:02:48;99346.25;;;-1.53;57.62
73453;BME280;61687;56.232;43.854;2023-03-13T02:05:16;99336.63;;;-1.54;57.07
73453;BME280;61687;56.232;43.854;2023-03-13T02:07:49;99328.72;;;-1.50;56.54
73453;BME280;61687;56.232;43.854;2023-03-13T02:10:17;99337.88;;;-1.51;56.87
73453;BME280;61687;56.232;43.854;2023-03-13T02:12:44;99329.38;;;-1.45;57.12
73453;BME280;61687;56.232;43.854;2023-03-13T02:15:19;99350.38;;;-1.47;57.06
73453;BME280;61687;56.232;43.854;2023-03-13T02:17:47;99346.41;;;-1.49;56.59
73453;BME280;61687;56.232;43.854;2023-03-13T02:20:15;99348.81;;;-1.48;56.85
73453;BME280;61687;56.232;43.854;2023-03-13T02:22:52;99352.31;;;-1.47;56.88
73453;BME280;61687;56.232;43.854;2023-03-13T02:27:46;99356.38;;;-1.50;57.32
73453;BME280;61687;56.232;43.854;2023-03-13T02:30:14;99360.97;;;-1.50;57.78
73453;BME280;61687;56.232;43.854;2023-03-13T02:32:40;99371.88;;;-1.47;57.73
73453;BME280;61687;56.232;43.854;2023-03-13T02:35:12;99372.06;;;-1.43;58.00
73453;BME280;61687;56.232;43.854;2023-03-13T02:37:43;99368.72;;;-1.49;58.33
73453;BME280;61687;56.232;43.854;2023-03-13T02:40:25;99378.66;;;-1.49;58.65
73453;BME280;61687;56.232;43.854;2023-03-13T02:42:55;99372.22;;;-1.48;59.13
73453;BME280;61687;56.232;43.854;2023-03-13T02:45:21;99369.53;;;-1.39;59.33
73453;BME280;61687;56.232;43.854;2023-03-13T02:47:48;99377.78;;;-1.36;59.64
73453;BME280;61687;56.232;43.854;2023-03-13T02:50:14;99378.44;;;-1.30;59.85
73453;BME280;61687;56.232;43.854;2023-03-13T02:52:44;99390.91;;;-1.34;60.14
73453;BME280;61687;56.232;43.854;2023-03-13T02:55:15;99394.38;;;-1.34;60.67
73453;BME280;61687;56.232;43.854;2023-03-13T02:57:43;99382.22;;;-1.31;60.94
73453;BME280;61687;56.232;43.854;2023-03-13T03:00:10;99384.78;;;-1.26;61.16
73453;BME280;61687;56.232;43.854;2023-03-13T03:02:42;99390.63;;;-1.24;61.28
73453;BME280;61687;56.232;43.854;2023-03-13T03:05:09;99398.41;;;-1.22;61.89
73453;BME280;61687;56.232;43.854;2023-03-13T03:07:35;99399.47;;;-1.32;62.60
73453;BME280;61687;56.232;43.854;2023-03-13T03:10:02;99403.25;;;-1.33;62.90
73453;BME280;61687;56.232;43.854;2023-03-13T03:12:29;99400.56;;;-1.33;63.33
73453;BME280;61687;56.232;43.854;2023-03-13T03:14:55;99411.44;;;-1.38;63.27
73453;BME280;61687;56.232;43.854;2023-03-13T03:17:22;99424.56;;;-1.37;63.62
73453;BME280;61687;56.232;43.854;2023-03-13T03:19:48;99418.06;;;-1.45;63.62
73453;BME280;61687;56.232;43.854;2023-03-13T03:22:14;99427.22;;;-1.46;63.42
73453;BME280;61687;56.232;43.854;2023-03-13T03:24:40;99422.31;;;-1.44;62.83
73453;BME280;61687;56.232;43.854;2023-03-13T03:27:05;99434.19;;;-1.45;63.03
73453;BME280;61687;56.232;43.854;2023-03-13T03:29:38;99428.19;;;-1.41;62.65
73453;BME280;61687;56.232;43.854;2023-03-13T03:32:04;99435.91;;;-1.49;62.38
73453;BME280;61687;56.232;43.854;2023-03-13T03:34:31;99443.97;;;-1.49;62.26
73453;BME280;61687;56.232;43.854;2023-03-13T03:36:58;99455.47;;;-1.57;61.73
73453;BME280;61687;56.232;43.854;2023-03-13T03:39:26;99460.34;;;-1.59;62.14
73453;BME280;61687;56.232;43.854;2023-03-13T03:41:52;99462.72;;;-1.58;62.36
73453;BME280;61687;56.232;43.854;2023-03-13T03:44:19;99467.31;;;-1.58;61.75
73453;BME280;61687;56.232;43.854;2023-03-13T03:46:52;99466.31;;;-1.62;60.97
73453;BME280;61687;56.232;43.854;2023-03-13T03:49:18;99485.56;;;-1.69;60.75
73453;BME280;61687;56.232;43.854;2023-03-13T03:51:44;99471.59;;;-1.80;60.52
73453;BME280;61687;56.232;43.854;2023-03-13T03:54:10;99473.41;;;-1.89;61.00
73453;BME280;61687;56.232;43.854;2023-03-13T03:56:36;99482.47;;;-1.99;61.10
73453;BME280;61687;56.232;43.854;2023-03-13T03:59:03;99493.81;;;-2.02;61.30
73453;BME280;61687;56.232;43.854;2023-03-13T04:01:42;99491.75;;;-2.05;61.91
73453;BME280;61687;56.232;43.854;2023-03-13T04:04:09;99493.66;;;-2.20;62.35
73453;BME280;61687;56.232;43.854;2023-03-13T04:06:36;99516.13;;;-2.16;62.19
73453;BME280;61687;56.232;43.854;2023-03-13T04:09:03;99510.47;;;-2.14;62.28
73453;BME280;61687;56.232;43.854;2023-03-13T04:11:30;99514.00;;;-2.05;62.12
73453;BME280;61687;56.232;43.854;2023-03-13T04:13:56;99525.16;;;-1.97;61.80
73453;BME280;61687;56.232;43.854;2023-03-13T04:16:22;99528.41;;;-1.87;61.65
73453;BME280;61687;56.232;43.854;2023-03-13T04:18:49;99540.31;;;-1.79;61.27
73453;BME280;61687;56.232;43.854;2023-03-13T04:21:16;99545.41;;;-1.91;61.27
73453;BME280;61687;56.232;43.854;2023-03-13T04:23:47;99560.06;;;-1.97;61.68
73453;BME280;61687;56.232;43.854;2023-03-13T04:26:13;99577.88;;;-2.02;60.33
73453;BME280;61687;56.232;43.854;2023-03-13T04:28:40;99563.56;;;-2.25;59.11
73453;BME280;61687;56.232;43.854;2023-03-13T04:31:08;99576.69;;;-2.51;58.52
73453;BME280;61687;56.232;43.854;2023-03-13T04:33:58;99602.13;;;-2.63;58.79
73453;BME280;61687;56.232;43.854;2023-03-13T04:36:51;99596.34;;;-2.70;59.26
73453;BME280;61687;56.232;43.854;2023-03-13T04:39:32;99594.25;;;-2.73;59.17
73453;BME280;61687;56.232;43.854;2023-03-13T04:42:18;99612.41;;;-2.70;58.99
73453;BME280;61687;56.232;43.854;2023-03-13T04:44:56;99606.28;;;-2.70;58.60
73453;BME280;61687;56.232;43.854;2023-03-13T04:47:45;99627.72;;;-2.70;59.08
73453;BME280;61687;56.232;43.854;2023-03-13T04:50:30;99623.75;;;-2.73;58.54
73453;BME280;61687;56.232;43.854;2023-03-13T04:53:12;99614.81;;;-2.68;58.67
73453;BME280;61687;56.232;43.854;2023-03-13T04:56:04;99623.09;;;-2.65;58.45
73453;BME280;61687;56.232;43.854;2023-03-13T04:58:58;99622.28;;;-2.65;57.98
73453;BME280;61687;56.232;43.854;2023-03-13T05:01:59;99626.16;;;-2.57;58.10
73453;BME280;61687;56.232;43.854;2023-03-13T05:04:48;99643.84;;;-2.56;58.29
73453;BME280;61687;56.232;43.854;2023-03-13T05:07:47;99640.47;;;-2.48;58.02
73453;BME280;61687;56.232;43.854;2023-03-13T05:10:25;99646.25;;;-2.41;57.57
73453;BME280;61687;56.232;43.854;2023-03-13T05:13:20;99645.78;;;-2.29;57.60
73453;BME280;61687;56.232;43.854;2023-03-13T05:16:08;99650.66;;;-2.17;57.41
73453;BME280;61687;56.232;43.854;2023-03-13T05:18:53;99657.19;;;-2.23;56.03
73453;BME280;61687;56.232;43.854;2023-03-13T05:21:38;99665.47;;;-2.20;56.65
73453;BME280;61687;56.232;43.854;2023-03-13T05:24:22;99660.47;;;-2.26;56.89
73453;BME280;61687;56.232;43.854;2023-03-13T05:27:13;99678.16;;;-2.25;56.23
73453;BME280;61687;56.232;43.854;2023-03-13T05:29:59;99666.53;;;-2.35;56.37
73453;BME280;61687;56.232;43.854;2023-03-13T05:32:42;99674.00;;;-2.32;56.59
73453;BME280;61687;56.232;43.854;2023-03-13T05:35:46;99691.59;;;-2.25;56.79
73453;BME280;61687;56.232;43.854;2023-03-13T05:38:35;99668.03;;;-2.28;56.88
73453;BME280;61687;56.232;43.854;2023-03-13T05:41:09;99672.41;;;-2.33;57.00
73453;BME280;61687;56.232;43.854;2023-03-13T05:43:54;99680.84;;;-2.25;57.16
73453;BME280;61687;56.232;43.854;2023-03-13T05:46:52;99698.75;;;-2.21;57.71
73453;BME280;61687;56.232;43.854;2023-03-13T05:49:27;99695.09;;;-2.11;57.71
73453;BME280;61687;56.232;43.854;2023-03-13T05:51:53;99703.97;;;-1.96;57.50
73453;BME280;61687;56.232;43.854;2023-03-13T05:54:39;99705.94;;;-2.02;57.02
73453;BME280;61687;56.232;43.854;2023-03-13T05:57:22;99707.13;;;-1.94;56.77
73453;BME280;61687;56.232;43.854;2023-03-13T06:00:03;99715.19;;;-1.94;56.94
73453;BME280;61687;56.232;43.854;2023-03-13T06:02:54;99726.81;;;-1.71;57.17
73453;BME280;61687;56.232;43.854;2023-03-13T06:05:27;99722.63;;;-1.63;56.81
73453;BME280;61687;56.232;43.854;2023-03-13T06:07:53;99724.16;;;-1.57;56.88
73453;BME280;61687;56.232;43.854;2023-03-13T06:10:19;99737.09;;;-1.59;56.54
73453;BME280;61687;56.232;43.854;2023-03-13T06:12:52;99740.94;;;-1.51;56.60
73453;BME280;61687;56.232;43.854;2023-03-13T06:15:18;99737.75;;;-1.25;56.40
73453;BME280;61687;56.232;43.854;2023-03-13T06:18:10;99746.06;;;-1.13;55.05
73453;BME280;61687;56.232;43.854;2023-03-13T06:20:36;99753.72;;;-1.06;54.93
73453;BME280;61687;56.232;43.854;2023-03-13T06:23:03;99754.44;;;-1.14;54.78
73453;BME280;61687;56.232;43.854;2023-03-13T06:25:29;99757.47;;;-1.30;54.49
73453;BME280;61687;56.232;43.854;2023-03-13T06:27:54;99779.34;;;-1.23;54.00
73453;BME280;61687;56.232;43.854;2023-03-13T06:30:20;99765.41;;;-1.25;53.70
73453;BME280;61687;56.232;43.854;2023-03-13T06:32:46;99771.38;;;-1.28;53.54
73453;BME280;61687;56.232;43.854;2023-03-13T06:35:14;99780.84;;;-1.31;53.79
73453;BME280;61687;56.232;43.854;2023-03-13T06:37:40;99784.53;;;-1.12;53.76
73453;BME280;61687;56.232;43.854;2023-03-13T06:40:06;99783.72;;;-0.76;52.95
73453;BME280;61687;56.232;43.854;2023-03-13T06:42:33;99789.00;;;-0.71;52.71
73453;BME280;61687;56.232;43.854;2023-03-13T06:44:59;99782.75;;;-0.80;52.15
73453;BME280;61687;56.232;43.854;2023-03-13T06:47:24;99793.81;;;-0.82;52.52
73453;BME280;61687;56.232;43.854;2023-03-13T06:49:50;99803.25;;;-0.70;53.11
73453;BME280;61687;56.232;43.854;2023-03-13T06:52:16;99816.84;;;-0.53;52.48
73453;BME280;61687;56.232;43.854;2023-03-13T06:54:42;99816.53;;;-0.74;51.63
73453;BME280;61687;56.232;43.854;2023-03-13T06:57:08;99830.31;;;-0.90;51.56
73453;BME280;61687;56.232;43.854;2023-03-13T06:59:33;99826.84;;;-0.67;51.78
73453;BME280;61687;56.232;43.854;2023-03-13T07:01:59;99825.28;;;-0.46;51.36
73453;BME280;61687;56.232;43.854;2023-03-13T07:04:25;99843.69;;;-0.62;50.60
73453;BME280;61687;56.232;43.854;2023-03-13T07:06:51;99843.88;;;-0.58;51.58
73453;BME280;61687;56.232;43.854;2023-03-13T07:09:17;99836.38;;;-0.47;51.02
73453;BME280;61687;56.232;43.854;2023-03-13T07:11:44;99858.72;;;-0.61;50.68
73453;BME280;61687;56.232;43.854;2023-03-13T07:14:11;99871.53;;;-0.80;51.43
73453;BME280;61687;56.232;43.854;2023-03-13T07:16:37;99868.47;;;-1.02;51.61
73453;BME280;61687;56.232;43.854;2023-03-13T07:19:05;99858.59;;;-1.06;52.76
73453;BME280;61687;56.232;43.854;2023-03-13T07:21:31;99873.03;;;-1.02;52.53
73453;BME280;61687;56.232;43.854;2023-03-13T07:23:57;99870.75;;;-0.95;51.96
73453;BME280;61687;56.232;43.854;2023-03-13T07:26:24;99882.88;;;-0.83;51.64
73453;BME280;61687;56.232;43.854;2023-03-13T07:28:50;99884.84;;;-0.75;51.49
73453;BME280;61687;56.232;43.854;2023-03-13T07:31:18;99879.69;;;-0.72;50.70
73453;BME280;61687;56.232;43.854;2023-03-13T07:33:44;99883.66;;;-0.69;50.63
73453;BME280;61687;56.232;43.854;2023-03-13T07:36:12;99865.09;;;-0.56;50.34
73453;BME280;61687;56.232;43.854;2023-03-13T07:38:40;99893.81;;;-0.66;49.85
73453;BME280;61687;56.232;43.854;2023-03-13T07:41:10;99907.53;;;-0.53;50.01
73453;BME280;61687;56.232;43.854;2023-03-13T07:43:39;99897.78;;;-0.49;49.86
73453;BME280;61687;56.232;43.854;2023-03-13T07:46:06;99913.56;;;-0.70;49.67
73453;BME280;61687;56.232;43.854;2023-03-13T07:48:37;99923.13;;;-0.78;50.29
73453;BME280;61687;56.232;43.854;2023-03-13T07:51:06;99921.34;;;-0.69;50.15
73453;BME280;61687;56.232;43.854;2023-03-13T07:53:32;99925.63;;;-0.68;50.73
73453;BME280;61687;56.232;43.854;2023-03-13T07:56:01;99926.81;;;-0.60;50.18
73453;BME280;61687;56.232;43.854;2023-03-13T07:58:30;99927.09;;;-0.62;49.72
73453;BME280;61687;56.232;43.854;2023-03-13T08:00:56;99937.69;;;-0.51;49.52
73453;BME280;61687;56.232;43.854;2023-03-13T08:03:22;99931.81;;;-0.17;48.79
73453;BME280;61687;56.232;43.854;2023-03-13T08:05:59;99927.34;;;0.02;48.07
73453;BME280;61687;56.232;43.854;2023-03-13T08:08:26;99934.66;;;0.01;49.45
73453;BME280;61687;56.232;43.854;2023-03-13T08:10:52;99936.44;;;0.60;48.99
73453;BME280;61687;56.232;43.854;2023-03-13T08:13:18;99935.94;;;0.90;46.95
73453;BME280;61687;56.232;43.854;2023-03-13T08:15:44;99947.50;;;1.22;46.91
73453;BME280;61687;56.232;43.854;2023-03-13T08:18:11;99952.78;;;0.64;46.58
73453;BME280;61687;56.232;43.854;2023-03-13T08:20:37;99947.69;;;0.62;46.31
73453;BME280;61687;56.232;43.854;2023-03-13T08:23:03;99960.66;;;0.51;46.40
73453;BME280;61687;56.232;43.854;2023-03-13T08:25:29;99966.56;;;0.53;46.49
73453;BME280;61687;56.232;43.854;2023-03-13T08:27:56;99959.44;;;0.57;46.18
73453;BME280;61687;56.232;43.854;2023-03-13T08:30:22;99964.75;;;0.71;45.83
73453;BME280;61687;56.232;43.854;2023-03-13T08:32:48;99971.25;;;0.48;46.33
73453;BME280;61687;56.232;43.854;2023-03-13T08:35:14;99974.94;;;0.52;46.89
73453;BME280;61687;56.232;43.854;2023-03-13T08:37:40;99978.41;;;0.75;45.47
73453;BME280;61687;56.232;43.854;2023-03-13T08:40:06;100002.38;;;0.77;45.18
73453;BME280;61687;56.232;43.854;2023-03-13T08:42:37;99986.13;;;0.68;43.97
73453;BME280;61687;56.232;43.854;2023-03-13T08:45:04;99994.81;;;0.88;43.46
73453;BME280;61687;56.232;43.854;2023-03-13T08:47:30;99983.34;;;0.82;43.50
73453;BME280;61687;56.232;43.854;2023-03-13T08:49:56;99994.31;;;0.85;43.75
73453;BME280;61687;56.232;43.854;2023-03-13T08:52:22;99990.78;;;0.76;43.24
73453;BME280;61687;56.232;43.854;2023-03-13T08:54:48;99989.50;;;1.05;43.05
73453;BME280;61687;56.232;43.854;2023-03-13T08:57:14;100003.44;;;0.98;43.41
73453;BME280;61687;56.232;43.854;2023-03-13T08:59:40;99999.94;;;0.98;43.50
73453;BME280;61687;56.232;43.854;2023-03-13T09:02:08;99999.94;;;0.98;43.93
73453;BME280;61687;56.232;43.854;2023-03-13T09:04:34;100000.00;;;1.07;44.34
73453;BME280;61687;56.232;43.854;2023-03-13T09:06:59;100008.63;;;0.86;44.37
73453;BME280;61687;56.232;43.854;2023-03-13T09:09:25;100008.78;;;0.90;44.17
73453;BME280;61687;56.232;43.854;2023-03-13T09:11:51;100012.72;;;0.83;44.06
73453;BME280;61687;56.232;43.854;2023-03-13T09:14:17;100036.25;;;0.69;43.63
73453;BME280;61687;56.232;43.854;2023-03-13T09:16:43;100023.72;;;0.64;43.61
73453;BME280;61687;56.232;43.854;2023-03-13T09:19:10;100019.31;;;0.68;43.50
73453;BME280;61687;56.232;43.854;2023-03-13T09:21:37;100030.25;;;0.72;44.16
73453;BME280;61687;56.232;43.854;2023-03-13T09:24:03;100038.06;;;1.05;42.81
73453;BME280;61687;56.232;43.854;2023-03-13T09:26:29;100035.06;;;1.07;44.54
73453;BME280;61687;56.232;43.854;2023-03-13T09:28:55;100038.09;;;1.46;43.12
73453;BME280;61687;56.232;43.854;2023-03-13T09:31:24;100035.31;;;1.68;42.57
73453;BME280;61687;56.232;43.854;2023-03-13T09:33:51;100029.28;;;1.80;42.08
73453;BME280;61687;56.232;43.854;2023-03-13T09:36:18;100038.81;;;1.86;42.14
73453;BME280;61687;56.232;43.854;2023-03-13T09:38:45;100041.97;;;1.62;41.68
73453;BME280;61687;56.232;43.854;2023-03-13T09:41:21;100044.53;;;1.76;42.71
73453;BME280;61687;56.232;43.854;2023-03-13T09:48:56;100076.59;;;0.51;43.29
73453;BME280;61687;56.232;43.854;2023-03-13T09:51:37;100067.56;;;0.33;44.41
73453;BME280;61687;56.232;43.854;2023-03-13T09:54:24;100063.72;;;0.48;44.70
73453;BME280;61687;56.232;43.854;2023-03-13T09:57:05;100062.50;;;0.77;44.55
73453;BME280;61687;56.232;43.854;2023-03-13T10:02:33;100054.22;;;1.28;41.52
73453;BME280;61687;56.232;43.854;2023-03-13T10:07:29;100062.06;;;1.38;40.81
73453;BME280;61687;56.232;43.854;2023-03-13T10:09:55;100068.31;;;1.56;41.19
73453;BME280;61687;56.232;43.854;2023-03-13T10:12:30;100103.75;;;1.64;40.23
73453;BME280;61687;56.232;43.854;2023-03-13T10:15:18;100085.94;;;1.54;40.18
73453;BME280;61687;56.232;43.854;2023-03-13T10:17:46;100085.75;;;1.99;39.66
73453;BME280;61687;56.232;43.854;2023-03-13T10:20:26;100090.13;;;2.53;39.70
73453;BME280;61687;56.232;43.854;2023-03-13T10:25:50;100084.16;;;1.98;39.43
73453;BME280;61687;56.232;43.854;2023-03-13T10:28:17;100091.88;;;1.74;39.65
73453;BME280;61687;56.232;43.854;2023-03-13T10:31:13;100106.31;;;1.60;40.29
73453;BME280;61687;56.232;43.854;2023-03-13T10:33:43;100098.25;;;1.37;40.03
73453;BME280;61687;56.232;43.854;2023-03-13T10:36:11;100102.31;;;1.26;40.71
73453;BME280;61687;56.232;43.854;2023-03-13T10:38:50;100109.66;;;1.34;40.79
73453;BME280;61687;56.232;43.854;2023-03-13T10:43:53;100102.44;;;1.93;40.74
73453;BME280;61687;56.232;43.854;2023-03-13T10:46:27;100109.63;;;2.15;39.97
73453;BME280;61687;56.232;43.854;2023-03-13T10:48:55;100112.31;;;2.06;39.98
73453;BME280;61687;56.232;43.854;2023-03-13T10:51:23;100113.25;;;2.02;40.31
73453;BME280;61687;56.232;43.854;2023-03-13T10:53:50;100114.13;;;2.28;40.59
73453;BME280;61687;56.232;43.854;2023-03-13T10:56:29;100122.03;;;2.16;40.36
73453;BME280;61687;56.232;43.854;2023-03-13T10:58:55;100129.34;;;2.07;40.77
73453;BME280;61687;56.232;43.854;2023-03-13T11:01:39;100130.31;;;2.11;39.72
73453;BME280;61687;56.232;43.854;2023-03-13T11:04:29;100128.88;;;2.22;39.09
73453;BME280;61687;56.232;43.854;2023-03-13T11:07:13;100129.84;;;2.18;39.19
73453;BME280;61687;56.232;43.854;2023-03-13T11:09:40;100133.81;;;2.20;39.75
73453;BME280;61687;56.232;43.854;2023-03-13T11:12:19;100129.81;;;2.09;39.35
73453;BME280;61687;56.232;43.854;2023-03-13T11:14:45;100131.72;;;2.08;38.79
73453;BME280;61687;56.232;43.854;2023-03-13T11:17:43;100142.03;;;1.97;39.02
73453;BME280;61687;56.232;43.854;2023-03-13T11:23:12;100147.72;;;1.87;39.08
73453;BME280;61687;56.232;43.854;2023-03-13T11:34:10;100149.38;;;4.24;36.31
73453;BME280;61687;56.232;43.854;2023-03-13T11:36:42;100148.16;;;3.83;35.96
73453;BME280;61687;56.232;43.854;2023-03-13T11:45:02;100165.84;;;3.80;36.93
73453;BME280;61687;56.232;43.854;2023-03-13T11:47:38;100176.41;;;4.63;34.15
73453;BME280;61687;56.232;43.854;2023-03-13T11:53:12;100180.41;;;6.50;31.48
73453;BME280;61687;56.232;43.854;2023-03-13T11:58:52;100178.72;;;4.52;33.19
73453;BME280;61687;56.232;43.854;2023-03-13T12:01:33;100175.19;;;3.62;34.75
73453;BME280;61687;56.232;43.854;2023-03-13T12:07:06;100185.13;;;5.91;31.71
73453;BME280;61687;56.232;43.854;2023-03-13T12:09:48;100189.56;;;6.99;29.00
73453;BME280;61687;56.232;43.854;2023-03-13T12:12:45;100179.41;;;7.40;28.40
73453;BME280;61687;56.232;43.854;2023-03-13T12:15:18;100187.16;;;7.54;29.86
73453;BME280;61687;56.232;43.854;2023-03-13T12:17:59;100187.97;;;8.03;29.46
73453;BME280;61687;56.232;43.854;2023-03-13T12:26:20;100188.06;;;6.61;28.87
73453;BME280;61687;56.232;43.854;2023-03-13T12:36:40;100193.41;;;8.35;28.60
73453;BME280;61687;56.232;43.854;2023-03-13T12:44:52;100206.44;;;5.09;33.15
73453;BME280;61687;56.232;43.854;2023-03-13T12:58:52;100217.75;;;8.76;29.71
73453;BME280;61687;56.232;43.854;2023-03-13T13:01:33;100231.81;;;8.26;29.95
73453;BME280;61687;56.232;43.854;2023-03-13T13:04:09;100226.13;;;8.67;29.35
73453;BME280;61687;56.232;43.854;2023-03-13T13:07:02;100231.91;;;7.82;30.90
73453;BME280;61687;56.232;43.854;2023-03-13T13:09:36;100230.63;;;7.06;31.56
73453;BME280;61687;56.232;43.854;2023-03-13T13:12:19;100234.09;;;5.91;33.08
73453;BME280;61687;56.232;43.854;2023-03-13T13:19:55;100241.47;;;5.02;32.45
73453;BME280;61687;56.232;43.854;2023-03-13T13:35:35;100253.53;;;5.13;35.13
73453;BME280;61687;56.232;43.854;2023-03-13T13:41:21;100259.16;;;5.08;34.79
73453;BME280;61687;56.232;43.854;2023-03-13T13:43:49;100262.50;;;4.63;36.36
73453;BME280;61687;56.232;43.854;2023-03-13T13:46:32;100260.16;;;4.82;35.96
73453;BME280;61687;56.232;43.854;2023-03-13T13:51:37;100253.91;;;5.46;35.10
73453;BME280;61687;56.232;43.854;2023-03-13T13:57:17;100263.75;;;3.88;37.62
73453;BME280;61687;56.232;43.854;2023-03-13T13:59:49;100265.41;;;3.27;38.79
73453;BME280;61687;56.232;43.854;2023-03-13T14:02:52;100263.47;;;2.83;39.81
73453;BME280;61687;56.232;43.854;2023-03-13T14:05:21;100266.88;;;2.49;40.29
73453;BME280;61687;56.232;43.854;2023-03-13T14:07:52;100263.59;;;2.20;40.68
73453;BME280;61687;56.232;43.854;2023-03-13T14:10:38;100275.03;;;1.85;41.18
73453;BME280;61687;56.232;43.854;2023-03-13T14:13:18;100279.53;;;1.67;41.62
73453;BME280;61687;56.232;43.854;2023-03-13T14:15:50;100277.31;;;1.47;42.13
73453;BME280;61687;56.232;43.854;2023-03-13T14:18:23;100280.38;;;1.31;42.51
73453;BME280;61687;56.232;43.854;2023-03-13T14:21:01;100279.50;;;1.22;43.00
73453;BME280;61687;56.232;43.854;2023-03-13T14:23:38;100279.59;;;1.17;43.07
73453;BME280;61687;56.232;43.854;2023-03-13T14:28:59;100287.25;;;1.00;43.97
73453;BME280;61687;56.232;43.854;2023-03-13T14:31:38;100302.06;;;0.89;44.00
73453;BME280;61687;56.232;43.854;2023-03-13T14:34:06;100296.28;;;0.68;44.31
73453;BME280;61687;56.232;43.854;2023-03-13T14:36:54;100300.19;;;0.62;44.71
73453;BME280;61687;56.232;43.854;2023-03-13T14:39:36;100306.09;;;0.50;45.25
73453;BME280;61687;56.232;43.854;2023-03-13T14:42:12;100292.72;;;0.45;45.53
73453;BME280;61687;56.232;43.854;2023-03-13T14:44:39;100297.41;;;0.39;46.05
73453;BME280;61687;56.232;43.854;2023-03-13T14:49:46;100300.06;;;0.25;47.13
73453;BME280;61687;56.232;43.854;2023-03-13T14:52:23;100303.16;;;0.18;47.30
73453;BME280;61687;56.232;43.854;2023-03-13T14:54:57;100309.06;;;0.20;47.84
73453;BME280;61687;56.232;43.854;2023-03-13T14:57:30;100297.66;;;0.09;47.86
73453;BME280;61687;56.232;43.854;2023-03-13T15:00:30;100313.59;;;0.06;48.21
73453;BME280;61687;56.232;43.854;2023-03-13T15:05:47;100310.72;;;0.02;48.65
73453;BME280;61687;56.232;43.854;2023-03-13T15:10:40;100318.09;;;-0.04;48.90